TimeEST,TemperatureF,Dew PointF,Humidity,Sea Level PressureIn,VisibilityMPH,Wind Direction,Wind SpeedMPH,Gust SpeedMPH,PrecipitationIn,Events,Conditions,WindDirDegrees,DateUTC
12:53 AM,24.1,21.9,91,30.49,10.0,Calm,Calm,-,N/A,,Clear,0,2013-11-29 05:53:00
1:53 AM,23.0,21.0,92,30.50,10.0,Calm,Calm,-,N/A,,Clear,0,2013-11-29 06:53:00
2:53 AM,23.0,21.0,92,30.50,10.0,Calm,Calm,-,N/A,,Clear,0,2013-11-29 07:53:00
3:53 AM,23.0,21.0,92,30.50,10.0,Calm,Calm,-,N/A,,Clear,0,2013-11-29 08:53:00
4:53 AM,19.9,19.0,96,30.51,10.0,Calm,Calm,-,N/A,,Clear,0,2013-11-29 09:53:00
5:53 AM,19.9,19.0,96,30.52,10.0,West,3.5,-,N/A,,Clear,280,2013-11-29 10:53:00
6:53 AM,21.0,19.0,92,30.53,10.0,Calm,Calm,-,N/A,,Clear,0,2013-11-29 11:53:00
7:53 AM,21.0,19.0,92,30.56,10.0,Calm,Calm,-,N/A,,Clear,0,2013-11-29 12:53:00
8:53 AM,26.1,24.1,92,30.56,10.0,Calm,Calm,-,N/A,,Clear,0,2013-11-29 13:53:00
9:53 AM,35.1,28.9,78,30.56,10.0,Calm,Calm,-,N/A,,Clear,0,2013-11-29 14:53:00
10:53 AM,44.1,26.1,49,30.55,10.0,Calm,Calm,-,N/A,,Clear,0,2013-11-29 15:53:00
11:53 AM,48.0,26.1,42,30.53,10.0,Variable,3.5,-,N/A,,Clear,0,2013-11-29 16:53:00
12:53 PM,54.0,21.0,28,30.49,10.0,North,5.8,-,N/A,,Clear,10,2013-11-29 17:53:00
1:53 PM,57.0,23.0,27,30.47,10.0,Calm,Calm,-,N/A,,Clear,0,2013-11-29 18:53:00
2:53 PM,57.0,27.0,32,30.45,10.0,NNW,5.8,-,N/A,,Clear,330,2013-11-29 19:53:00
3:53 PM,55.9,28.0,34,30.45,10.0,NNE,6.9,-,N/A,,Clear,20,2013-11-29 20:53:00
4:53 PM,54.0,28.9,38,30.46,10.0,NNW,5.8,-,N/A,,Clear,330,2013-11-29 21:53:00
5:53 PM,46.0,30.0,54,30.47,8.0,Calm,Calm,-,N/A,,Clear,0,2013-11-29 22:53:00
6:53 PM,42.1,30.9,65,30.48,9.0,Calm,Calm,-,N/A,,Clear,0,2013-11-29 23:53:00
7:53 PM,36.0,30.0,79,30.49,10.0,Calm,Calm,-,N/A,,Clear,0,2013-11-30 00:53:00
8:53 PM,36.0,30.0,79,30.49,10.0,Calm,Calm,-,N/A,,Clear,0,2013-11-30 01:53:00
9:53 PM,32.0,28.0,85,30.50,10.0,Calm,Calm,-,N/A,,Clear,0,2013-11-30 02:53:00
10:53 PM,30.9,28.0,89,30.49,10.0,Calm,Calm,-,N/A,,Clear,0,2013-11-30 03:53:00
11:53 PM,28.9,27.0,92,30.49,10.0,Calm,Calm,-,N/A,,Clear,0,2013-11-30 04:53:00